Main page
Satellite images 15-day forecastsClimateMarine weather Cyclones Lightning AirportsFAQ Newsletter About
Weather : Europe Africa North America South America Asia Australia-Oceania Others
Languages Contact

Gomel, Belarus

latitude: 52-31-36N, longitude: 031-01-06E, elevation: 144 m


METAR: UMGG 301800Z 20003MPS 7000 NSC 03/M02 Q1023 R10/CLRD// NOSIG
TAF: UMGG 301645Z 3018/3118 VRB02MPS 5000 FU SCT100 TX07/3111Z TNM04/3104Z TEMPO 3020/3106 1200 BR SCT004 BECMG 3106/3108 27006MPS

Time: 21:12 (18:12 UTC)

Current weather observation

The report was made 12 minutes ago, at 18:00 UTC
Wind 6 kt from the South/Southwest
Temperature 3°C
Humidity 70%
Pressure 1023 hPa
Visibility: 7000 m

Change units

Forecast

The report was made 1 hour and 27 minutes ago, at 16:45 UTC
Forecast valid from 30 at 18 UTC to 31 at 18 UTC
Wind 4 kt from variable directions
Visibility: 5000 m
Scattered clouds at a height of 10000 ft
smoke
Temporary
from 30 at 20 UTC to 31 at 06 UTC
Visibility: 1200 m
Scattered clouds at a height of 400 ft
mist
Becoming
from 31 at 06 UTC to 31 at 08 UTC
Wind 12 kt from the West
The information on this site is subject to a disclaimer
Weather : Europe Africa North America South America Asia Australia-Oceania Others
Satellite images 15-day forecastsClimateMarine weather Cyclones Lightning AirportsFAQ Languages Contact Newsletter About